Strona główna
METAR-TAF:

METAR-TAF

Lotnisko :

Oswego County Airport

Fulton, Nowy Jork, Stany Zjednoczone

Szerokość geograficzna: 43-21-03N, Długość geograficzna: 076-23-17W, wysokość: 145 m

Aktualna obserwacja pogody

Raport powstał 27 minut temu, godzina 02:06 UTC
Wiatr 5 kt od zachodnio-północny zachód
Temperatura 6°C
Wilgotność 87%
Ciśnienie 1015 hPa
Widzialność: 9.7 km
Zachmurzenie całkowite na wysokości 300 ft
zamglenie

METAR: KFZY 040206Z AUTO 30005KT 6SM BR OVC003 06/04 A2998 RMK AO2 T00610044

czas: 22:33 (02:33 UTC)


TAF: brakujący

Obserwacja i prognoza pogody dla ponad 4000 lotnisk (raport METAR i TAF).

Dostępne stacje oznaczono żółtymi i czerwonymi punktami na mapie.

Najedź kursorem aby zobaczyć nazwę stacji.

Kliknij aby zobaczyć obserwacje i prognozy pogody.

Aby zmienić mapę: kliknij na zielony przycisk z czarnym krzyżykiem, aby powiększyć; na zielony przycisk z myślnikiem, aby pomniejszyć; na zielone strzałki, aby przejść do map sąsiednich.


METAR-TAF: